Chesapeake — WDD3041 — position and weather

sailwx.info

Track history (hours):
 
Tides and Currents Weather Stations Pressure Air Temp Water Temp Dewpoint Dewpoint Depression Visibility Wind Speed Wind Dir Waves Ship Positions

Chesapeake

Owner: Vane Line Bunkering, Philadelphia, PA. More information available from US FCC via Universal Licensing System and Coast Guard Vessel Documentation Center.

Last reported at 2018-Jan-18 17:17 UTC. Time now 2018-Jan-18 18:00 UTC.
Position N 40°47' W 073°54'.

Length 34 m.

Type: Tug. MMSI: 367123040.

Date/timePositionNaut miles runAvg speedWind from/ knotsBaromVisibWave heightAir tempDewpointWater temp
2018-Jan-18 17:17N 40°47' W 073°54'0 0.0
2018-Jan-18 16:56N 40°47' W 073°54'0 0.0
2018-Jan-18 16:29N 40°47' W 073°54'0 0.0
2018-Jan-18 15:45N 40°47' W 073°54'0 1.1
2018-Jan-18 15:30N 40°47' W 073°54'2 3.6
2018-Jan-18 14:59N 40°47' W 073°56'3 6.5
2018-Jan-18 14:29N 40°44' W 073°58'3 6.6
2018-Jan-18 14:00N 40°41' W 074°00'3 7.0
2018-Jan-18 13:31N 40°39' W 074°04'4 7.2
2018-Jan-18 13:00N 40°39' W 074°09'3 5.9
2018-Jan-18 12:30N 40°41' W 074°08'1 2.3
2018-Jan-18 11:59N 40°43' W 074°07'0 0.0
2018-Jan-18 11:29N 40°43' W 074°07'0 0.0
2018-Jan-18 10:59N 40°43' W 074°07'0 0.0
2018-Jan-18 10:29N 40°43' W 074°07'0 0.0
2018-Jan-18 09:56N 40°43' W 074°07'0 0.0
2018-Jan-18 09:26N 40°43' W 074°07'0 0.0
2018-Jan-18 08:59N 40°43' W 074°07'0 0.0
2018-Jan-18 08:29N 40°43' W 074°07'0 0.0
2018-Jan-18 07:59N 40°43' W 074°07'0 0.0
2018-Jan-18 07:29N 40°43' W 074°07'0 0.0
2018-Jan-18 06:59N 40°43' W 074°07'0 0.0
2018-Jan-18 06:26N 40°43' W 074°07'0 0.0
2018-Jan-18 05:59N 40°43' W 074°07'0 0.0
2018-Jan-18 05:29N 40°43' W 074°07'0 0.0
2018-Jan-18 04:59N 40°43' W 074°07'0 0.0
2018-Jan-18 04:29N 40°43' W 074°07'0 0.0
2018-Jan-18 03:59N 40°43' W 074°07'0 0.0
2018-Jan-18 03:29N 40°43' W 074°07'0 0.0
2018-Jan-18 02:59N 40°43' W 074°07'0 0.0
2018-Jan-18 02:29N 40°43' W 074°07'0 0.0
2018-Jan-18 01:59N 40°43' W 074°07'0 0.0
2018-Jan-18 01:29N 40°43' W 074°07'0 0.0
2018-Jan-18 00:59N 40°43' W 074°07'0 0.0
2018-Jan-18 00:00N 40°43' W 074°07'0 0.1
2018-Jan-17 23:57N 40°43' W 074°07'  
2018-Jan-12 15:00N 39°15' W 076°33'0 0.0
2018-Jan-12 14:30N 39°15' W 076°33'0 0.0
2018-Jan-12 14:00N 39°15' W 076°33'0 0.0
2018-Jan-12 13:31N 39°15' W 076°33'0 0.0
2018-Jan-12 13:00N 39°15' W 076°33'0 0.1
2018-Jan-12 12:31N 39°15' W 076°33'0 0.0
2018-Jan-12 12:00N 39°15' W 076°33'0 0.0
2018-Jan-12 11:30N 39°15' W 076°33'0 0.0
2018-Jan-12 10:58N 39°15' W 076°33'0 0.0
2018-Jan-12 10:31N 39°15' W 076°33'0 0.1
2018-Jan-12 10:00N 39°15' W 076°33'0 0.0
2018-Jan-12 09:30N 39°15' W 076°33'0 0.0
2018-Jan-12 09:00N 39°15' W 076°33'0 0.4
2018-Jan-12 08:30N 39°15' W 076°34'1 2.3
2018-Jan-12 08:01N 39°16' W 076°34'0 0.7
2018-Jan-12 07:31N 39°16' W 076°34'0 0.0
2018-Jan-12 07:01N 39°16' W 076°34'0 0.9
2018-Jan-12 06:30N 39°16' W 076°35'0 0.1
2018-Jan-12 06:01N 39°16' W 076°35'0 0.0
2018-Jan-12 05:30N 39°16' W 076°35'0 0.0
2018-Jan-12 05:01N 39°16' W 076°35'0 0.0
2018-Jan-12 04:31N 39°16' W 076°35'0 0.0
2018-Jan-12 04:01N 39°16' W 076°35'0 0.0
2018-Jan-12 03:31N 39°16' W 076°35'0 0.0
2018-Jan-12 03:01N 39°16' W 076°35'0 0.0
2018-Jan-12 02:31N 39°16' W 076°35'0 0.0
2018-Jan-12 02:01N 39°16' W 076°35'0 0.0
2018-Jan-12 01:30N 39°16' W 076°35'0 0.0
2018-Jan-12 01:01N 39°16' W 076°35'0 0.0
2018-Jan-12 00:31N 39°16' W 076°35'0 0.0
2018-Jan-12 00:00N 39°16' W 076°35'0 0.0
2018-Jan-11 23:31N 39°16' W 076°35'0 0.0
2018-Jan-11 23:01N 39°16' W 076°35'0 0.0
2018-Jan-11 22:30N 39°16' W 076°35'0 0.0
2018-Jan-11 22:01N 39°16' W 076°35'0 0.0
2018-Jan-11 21:31N 39°16' W 076°35'0 0.0
2018-Jan-11 21:00N 39°16' W 076°35'0 0.0
2018-Jan-11 20:31N 39°16' W 076°35'0 0.0
2018-Jan-11 20:01N 39°16' W 076°35'0 0.0
2018-Jan-11 19:31N 39°16' W 076°35'0 0.0
2018-Jan-11 19:01N 39°16' W 076°35'0 0.0
2018-Jan-11 18:30N 39°16' W 076°35'0 0.0
2018-Jan-11 18:01N 39°16' W 076°35'0 0.0
2018-Jan-11 17:30N 39°16' W 076°35'0 0.0
2018-Jan-11 17:00N 39°16' W 076°35'0 0.0
2018-Jan-11 16:31N 39°16' W 076°35'0 0.0
2018-Jan-11 16:00N 39°16' W 076°35'0 0.0
2018-Jan-11 15:31N 39°16' W 076°35'0 0.0
2018-Jan-11 15:00N 39°16' W 076°35'0 0.0
2018-Jan-11 14:30N 39°16' W 076°35'0 0.0
2018-Jan-11 14:01N 39°16' W 076°35'0 0.0
2018-Jan-11 13:31N 39°16' W 076°35'0 0.0
2018-Jan-11 13:01N 39°16' W 076°35'0 0.0
2018-Jan-11 12:31N 39°16' W 076°35'0 0.9
2018-Jan-11 12:00N 39°16' W 076°34'0 0.1
2018-Jan-11 11:30N 39°16' W 076°34'2 4.2
2018-Jan-11 11:01N 39°14' W 076°34'0 0.4
2018-Jan-11 10:30N 39°14' W 076°34'0 0.0
2018-Jan-11 10:00N 39°14' W 076°34'0 0.0
2018-Jan-11 09:31N 39°14' W 076°34'2 3.1
2018-Jan-11 09:00N 39°16' W 076°34'1 1.1
2018-Jan-11 08:31N 39°16' W 076°35'0 0.0
2018-Jan-11 08:00N 39°16' W 076°35'0 0.0
2018-Jan-11 07:31N 39°16' W 076°35'0 0.0
2018-Jan-11 07:00N 39°16' W 076°35'0 0.0
2018-Jan-11 06:31N 39°16' W 076°35'0 0.0
2018-Jan-11 06:00N 39°16' W 076°35'0 0.0
2018-Jan-11 05:31N 39°16' W 076°35'0 0.0
2018-Jan-11 05:01N 39°16' W 076°35'0 0.0
2018-Jan-11 04:30N 39°16' W 076°35'0 0.0
2018-Jan-11 04:00N 39°16' W 076°35'0 0.0
2018-Jan-11 03:31N 39°16' W 076°35'0 0.0
2018-Jan-11 03:00N 39°16' W 076°35'0 0.0
2018-Jan-11 02:31N 39°16' W 076°35'0 0.0
2018-Jan-11 02:00N 39°16' W 076°35'0 0.0
2018-Jan-11 01:20N 39°16' W 076°35'0 0.0
2018-Jan-11 01:00N 39°16' W 076°35'0 0.0
2018-Jan-11 00:30N 39°16' W 076°35'2 4.1
2018-Jan-11 00:00N 39°14' W 076°34'0 0.0
2018-Jan-10 23:30N 39°14' W 076°34'1 1.4
2018-Jan-10 23:00N 39°14' W 076°33'2 4.4
2018-Jan-10 22:30N 39°12' W 076°31'2 3.5
2018-Jan-10 22:00N 39°12' W 076°29'2 4.1
2018-Jan-10 21:30N 39°11' W 076°26'2 3.7
2018-Jan-10 21:00N 39°10' W 076°24'3 6.2
2018-Jan-10 20:30N 39°09' W 076°21'2 4.9
2018-Jan-10 20:00N 39°10' W 076°18'3 6.1
2018-Jan-10 19:28N 39°13' W 076°15'3 6.1
2018-Jan-10 19:00N 39°16' W 076°14'3 5.5
2018-Jan-10 18:29N 39°18' W 076°13'4 6.0
2018-Jan-10 17:52N 39°21' W 076°10'2 5.9
2018-Jan-10 17:28N 39°22' W 076°07'3 5.9
2018-Jan-10 16:59N 39°24' W 076°04'3 5.5
2018-Jan-10 16:30N 39°25' W 076°01'3 6.6
2018-Jan-10 16:00N 39°28' W 075°59'4 7.6
2018-Jan-10 15:30N 39°30' W 075°55'3 6.0
2018-Jan-10 15:00N 39°32' W 075°52'4 8.3
2018-Jan-10 14:30N 39°32' W 075°46'4 8.5
2018-Jan-10 14:00N 39°33' W 075°41'4 8.6
2018-Jan-10 13:30N 39°33' W 075°35'3 5.2
2018-Jan-10 13:01N 39°36' W 075°34'3 6.9
2018-Jan-10 12:30N 39°39' W 075°33'4 7.3
2018-Jan-10 12:00N 39°42' W 075°31'4 7.4
2018-Jan-10 11:30N 39°46' W 075°29'4 7.3
2018-Jan-10 11:00N 39°48' W 075°25'3 7.0
2018-Jan-10 10:31N 39°50' W 075°22'3 6.8
2018-Jan-10 10:00N 39°51' W 075°17'4 7.0
2018-Jan-10 09:30N 39°52' W 075°13'4 7.3
2018-Jan-10 09:00N 39°53' W 075°08'4 8.5
2018-Jan-10 08:31N 39°57' W 075°08'2 4.3
2018-Jan-10 08:01N 39°59' W 075°06'0 0.0
2018-Jan-10 07:31N 39°59' W 075°06'0 0.0
2018-Jan-10 07:01N 39°59' W 075°06'2 3.9
2018-Jan-10 06:31N 39°58' W 075°08'4 8.0
2018-Jan-10 06:01N 39°54' W 075°08'3 5.4
2018-Jan-10 05:31N 39°53' W 075°12'0 0.6
2018-Jan-10 05:01N 39°54' W 075°12'0 0.0
2018-Jan-10 04:31N 39°54' W 075°12'0 0.0
2018-Jan-10 04:00N 39°54' W 075°12'0 0.0
2018-Jan-10 03:31N 39°54' W 075°12'0 0.0
2018-Jan-10 03:01N 39°54' W 075°12'0 0.0
2018-Jan-10 02:31N 39°54' W 075°12'0 0.0
2018-Jan-10 02:01N 39°54' W 075°12'0 0.0
2018-Jan-10 01:30N 39°54' W 075°12'0 0.0
2018-Jan-10 01:00N 39°54' W 075°12'0 0.0
2018-Jan-10 00:30N 39°54' W 075°12'0 0.0
2018-Jan-10 00:00N 39°54' W 075°12'0 0.0
2018-Jan-09 23:30N 39°54' W 075°12'0 0.0
2018-Jan-09 23:00N 39°54' W 075°12'0 0.1
2018-Jan-09 22:31N 39°54' W 075°12'0 0.4
2018-Jan-09 22:00N 39°54' W 075°12'0 0.4
2018-Jan-09 21:31N 39°53' W 075°12'0 0.0
2018-Jan-09 21:01N 39°53' W 075°12'0 0.0
2018-Jan-09 20:30N 39°53' W 075°12'0 0.0
2018-Jan-09 20:01N 39°53' W 075°12'0 0.0
2018-Jan-09 19:31N 39°53' W 075°12'0 0.0
2018-Jan-09 19:00N 39°53' W 075°12'0 0.0
2018-Jan-09 18:31N 39°53' W 075°12'0 0.0
2018-Jan-09 18:00N 39°53' W 075°12'0 0.0
2018-Jan-09 17:31N 39°53' W 075°12'2 3.8
2018-Jan-09 17:01N 39°53' W 075°09'611.7
2018-Jan-09 16:30N 39°58' W 075°06'1 1.3
2018-Jan-09 16:00N 39°59' W 075°06'0 0.0
2018-Jan-09 15:30N 39°59' W 075°06'1 1.1
2018-Jan-09 15:00N 39°58' W 075°06'0 0.4
2018-Jan-09 14:30N 39°58' W 075°07'0 0.1
2018-Jan-09 14:00N 39°58' W 075°06'0 0.0
2018-Jan-09 13:30N 39°58' W 075°06'0 0.0
2018-Jan-09 13:00N 39°58' W 075°06'0 0.0
2018-Jan-09 12:30N 39°58' W 075°06'0 0.0
2018-Jan-09 12:01N 39°58' W 075°06'0 0.0
2018-Jan-09 11:31N 39°58' W 075°06'0 0.6
2018-Jan-09 11:00N 39°58' W 075°07'1 1.1
2018-Jan-09 10:31N 39°58' W 075°06'2 3.7
2018-Jan-09 10:01N 39°57' W 075°08'2 4.3
2018-Jan-09 09:30N 39°55' W 075°08'2 4.2
2018-Jan-09 09:00N 39°53' W 075°09'2 4.8
2018-Jan-09 08:30N 39°53' W 075°12'2 4.0
2018-Jan-09 08:01N 39°52' W 075°14'0 0.7
2018-Jan-09 07:31N 39°52' W 075°13'0 0.7
2018-Jan-09 07:01N 39°52' W 075°14'0 0.4
2018-Jan-09 06:30N 39°51' W 075°14'1 1.2
2018-Jan-09 06:00N 39°51' W 075°15'1 2.0
2018-Jan-09 05:30N 39°51' W 075°16'2 3.1
2018-Jan-09 05:00N 39°51' W 075°18'2 3.4
2018-Jan-09 04:30N 39°51' W 075°20'1 3.0
2018-Jan-09 04:00N 39°50' W 075°22'1 2.5
2018-Jan-09 03:30N 39°49' W 075°23'2 3.1
2018-Jan-09 03:00N 39°48' W 075°25'1 2.2
2018-Jan-09 02:30N 39°48' W 075°26'2 3.4
2018-Jan-09 02:00N 39°47' W 075°28'2 3.2
2018-Jan-09 01:30N 39°46' W 075°29'2 3.8
2018-Jan-09 01:00N 39°44' W 075°30'2 4.1
2018-Jan-09 00:30N 39°42' W 075°31'2 4.7
2018-Jan-09 00:00N 39°40' W 075°32'2 4.4
2018-Jan-08 23:30N 39°38' W 075°34'3 5.3
2018-Jan-08 23:00N 39°36' W 075°34'2 4.1
2018-Jan-08 22:30N 39°34' W 075°34'2 4.8
2018-Jan-08 22:00N 39°33' W 075°37'2 4.8
2018-Jan-08 21:30N 39°33' W 075°40'3 5.1
2018-Jan-08 21:00N 39°32' W 075°44'2 4.7
2018-Jan-08 20:30N 39°32' W 075°47'2 4.3
2018-Jan-08 20:00N 39°32' W 075°50'2 4.9
2018-Jan-08 19:30N 39°31' W 075°53'1 2.3
2018-Jan-08 19:01N 39°31' W 075°54'0 0.9
2018-Jan-08 18:30N 39°30' W 075°54'1 1.4
2018-Jan-08 18:00N 39°30' W 075°55'1 2.6
2018-Jan-08 17:30N 39°29' W 075°56'  
Track history (hours):
 
Tides and Currents Weather Stations Pressure Air Temp Water Temp Dewpoint Dewpoint Depression Visibility Wind Speed Wind Dir Waves Ship Positions

Chesapeake

Owner: Vane Line Bunkering, Philadelphia, PA. More information available from US FCC via Universal Licensing System and Coast Guard Vessel Documentation Center.

Last reported at 2018-Jan-18 17:17 UTC. Time now 2018-Jan-18 18:00 UTC.
Position N 40°47' W 073°54'.

Length 34 m.

Type: Tug. MMSI: 367123040.

Date/timePositionNaut miles runAvg speedWind from/ knotsBaromVisibWave heightAir tempDewpointWater temp
2018-Jan-18 17:17N 40°47' W 073°54'0 0.0
2018-Jan-18 16:56N 40°47' W 073°54'0 0.0
2018-Jan-18 16:29N 40°47' W 073°54'0 0.0
2018-Jan-18 15:45N 40°47' W 073°54'0 1.1
2018-Jan-18 15:30N 40°47' W 073°54'2 3.6
2018-Jan-18 14:59N 40°47' W 073°56'3 6.5
2018-Jan-18 14:29N 40°44' W 073°58'3 6.6
2018-Jan-18 14:00N 40°41' W 074°00'3 7.0
2018-Jan-18 13:31N 40°39' W 074°04'4 7.2
2018-Jan-18 13:00N 40°39' W 074°09'3 5.9
2018-Jan-18 12:30N 40°41' W 074°08'1 2.3
2018-Jan-18 11:59N 40°43' W 074°07'0 0.0
2018-Jan-18 11:29N 40°43' W 074°07'0 0.0
2018-Jan-18 10:59N 40°43' W 074°07'0 0.0
2018-Jan-18 10:29N 40°43' W 074°07'0 0.0
2018-Jan-18 09:56N 40°43' W 074°07'0 0.0
2018-Jan-18 09:26N 40°43' W 074°07'0 0.0
2018-Jan-18 08:59N 40°43' W 074°07'0 0.0
2018-Jan-18 08:29N 40°43' W 074°07'0 0.0
2018-Jan-18 07:59N 40°43' W 074°07'0 0.0
2018-Jan-18 07:29N 40°43' W 074°07'0 0.0
2018-Jan-18 06:59N 40°43' W 074°07'0 0.0
2018-Jan-18 06:26N 40°43' W 074°07'0 0.0
2018-Jan-18 05:59N 40°43' W 074°07'0 0.0
2018-Jan-18 05:29N 40°43' W 074°07'0 0.0
2018-Jan-18 04:59N 40°43' W 074°07'0 0.0
2018-Jan-18 04:29N 40°43' W 074°07'0 0.0
2018-Jan-18 03:59N 40°43' W 074°07'0 0.0
2018-Jan-18 03:29N 40°43' W 074°07'0 0.0
2018-Jan-18 02:59N 40°43' W 074°07'0 0.0
2018-Jan-18 02:29N 40°43' W 074°07'0 0.0
2018-Jan-18 01:59N 40°43' W 074°07'0 0.0
2018-Jan-18 01:29N 40°43' W 074°07'0 0.0
2018-Jan-18 00:59N 40°43' W 074°07'0 0.0
2018-Jan-18 00:00N 40°43' W 074°07'0 0.1
2018-Jan-17 23:57N 40°43' W 074°07'  
2018-Jan-12 15:00N 39°15' W 076°33'0 0.0
2018-Jan-12 14:30N 39°15' W 076°33'0 0.0
2018-Jan-12 14:00N 39°15' W 076°33'0 0.0
2018-Jan-12 13:31N 39°15' W 076°33'0 0.0
2018-Jan-12 13:00N 39°15' W 076°33'0 0.1
2018-Jan-12 12:31N 39°15' W 076°33'0 0.0
2018-Jan-12 12:00N 39°15' W 076°33'0 0.0
2018-Jan-12 11:30N 39°15' W 076°33'0 0.0
2018-Jan-12 10:58N 39°15' W 076°33'0 0.0
2018-Jan-12 10:31N 39°15' W 076°33'0 0.1
2018-Jan-12 10:00N 39°15' W 076°33'0 0.0
2018-Jan-12 09:30N 39°15' W 076°33'0 0.0
2018-Jan-12 09:00N 39°15' W 076°33'0 0.4
2018-Jan-12 08:30N 39°15' W 076°34'1 2.3
2018-Jan-12 08:01N 39°16' W 076°34'0 0.7
2018-Jan-12 07:31N 39°16' W 076°34'0 0.0
2018-Jan-12 07:01N 39°16' W 076°34'0 0.9
2018-Jan-12 06:30N 39°16' W 076°35'0 0.1
2018-Jan-12 06:01N 39°16' W 076°35'0 0.0
2018-Jan-12 05:30N 39°16' W 076°35'0 0.0
2018-Jan-12 05:01N 39°16' W 076°35'0 0.0
2018-Jan-12 04:31N 39°16' W 076°35'0 0.0
2018-Jan-12 04:01N 39°16' W 076°35'0 0.0
2018-Jan-12 03:31N 39°16' W 076°35'0 0.0
2018-Jan-12 03:01N 39°16' W 076°35'0 0.0
2018-Jan-12 02:31N 39°16' W 076°35'0 0.0
2018-Jan-12 02:01N 39°16' W 076°35'0 0.0
2018-Jan-12 01:30N 39°16' W 076°35'0 0.0
2018-Jan-12 01:01N 39°16' W 076°35'0 0.0
2018-Jan-12 00:31N 39°16' W 076°35'0 0.0
2018-Jan-12 00:00N 39°16' W 076°35'0 0.0
2018-Jan-11 23:31N 39°16' W 076°35'0 0.0
2018-Jan-11 23:01N 39°16' W 076°35'0 0.0
2018-Jan-11 22:30N 39°16' W 076°35'0 0.0
2018-Jan-11 22:01N 39°16' W 076°35'0 0.0
2018-Jan-11 21:31N 39°16' W 076°35'0 0.0
2018-Jan-11 21:00N 39°16' W 076°35'0 0.0
2018-Jan-11 20:31N 39°16' W 076°35'0 0.0
2018-Jan-11 20:01N 39°16' W 076°35'0 0.0
2018-Jan-11 19:31N 39°16' W 076°35'0 0.0
2018-Jan-11 19:01N 39°16' W 076°35'0 0.0
2018-Jan-11 18:30N 39°16' W 076°35'0 0.0
2018-Jan-11 18:01N 39°16' W 076°35'0 0.0
2018-Jan-11 17:30N 39°16' W 076°35'0 0.0
2018-Jan-11 17:00N 39°16' W 076°35'0 0.0
2018-Jan-11 16:31N 39°16' W 076°35'0 0.0
2018-Jan-11 16:00N 39°16' W 076°35'0 0.0
2018-Jan-11 15:31N 39°16' W 076°35'0 0.0
2018-Jan-11 15:00N 39°16' W 076°35'0 0.0
2018-Jan-11 14:30N 39°16' W 076°35'0 0.0
2018-Jan-11 14:01N 39°16' W 076°35'0 0.0
2018-Jan-11 13:31N 39°16' W 076°35'0 0.0
2018-Jan-11 13:01N 39°16' W 076°35'0 0.0
2018-Jan-11 12:31N 39°16' W 076°35'0 0.9
2018-Jan-11 12:00N 39°16' W 076°34'0 0.1
2018-Jan-11 11:30N 39°16' W 076°34'2 4.2
2018-Jan-11 11:01N 39°14' W 076°34'0 0.4
2018-Jan-11 10:30N 39°14' W 076°34'0 0.0
2018-Jan-11 10:00N 39°14' W 076°34'0 0.0
2018-Jan-11 09:31N 39°14' W 076°34'2 3.1
2018-Jan-11 09:00N 39°16' W 076°34'1 1.1
2018-Jan-11 08:31N 39°16' W 076°35'0 0.0
2018-Jan-11 08:00N 39°16' W 076°35'0 0.0
2018-Jan-11 07:31N 39°16' W 076°35'0 0.0
2018-Jan-11 07:00N 39°16' W 076°35'0 0.0
2018-Jan-11 06:31N 39°16' W 076°35'0 0.0
2018-Jan-11 06:00N 39°16' W 076°35'0 0.0
2018-Jan-11 05:31N 39°16' W 076°35'0 0.0
2018-Jan-11 05:01N 39°16' W 076°35'0 0.0
2018-Jan-11 04:30N 39°16' W 076°35'0 0.0
2018-Jan-11 04:00N 39°16' W 076°35'0 0.0
2018-Jan-11 03:31N 39°16' W 076°35'0 0.0
2018-Jan-11 03:00N 39°16' W 076°35'0 0.0
2018-Jan-11 02:31N 39°16' W 076°35'0 0.0
2018-Jan-11 02:00N 39°16' W 076°35'0 0.0
2018-Jan-11 01:20N 39°16' W 076°35'0 0.0
2018-Jan-11 01:00N 39°16' W 076°35'0 0.0
2018-Jan-11 00:30N 39°16' W 076°35'2 4.1
2018-Jan-11 00:00N 39°14' W 076°34'0 0.0
2018-Jan-10 23:30N 39°14' W 076°34'1 1.4
2018-Jan-10 23:00N 39°14' W 076°33'2 4.4
2018-Jan-10 22:30N 39°12' W 076°31'2 3.5
2018-Jan-10 22:00N 39°12' W 076°29'2 4.1
2018-Jan-10 21:30N 39°11' W 076°26'2 3.7
2018-Jan-10 21:00N 39°10' W 076°24'3 6.2
2018-Jan-10 20:30N 39°09' W 076°21'2 4.9
2018-Jan-10 20:00N 39°10' W 076°18'3 6.1
2018-Jan-10 19:28N 39°13' W 076°15'3 6.1
2018-Jan-10 19:00N 39°16' W 076°14'3 5.5
2018-Jan-10 18:29N 39°18' W 076°13'4 6.0
2018-Jan-10 17:52N 39°21' W 076°10'2 5.9
2018-Jan-10 17:28N 39°22' W 076°07'3 5.9
2018-Jan-10 16:59N 39°24' W 076°04'3 5.5
2018-Jan-10 16:30N 39°25' W 076°01'3 6.6
2018-Jan-10 16:00N 39°28' W 075°59'4 7.6
2018-Jan-10 15:30N 39°30' W 075°55'3 6.0
2018-Jan-10 15:00N 39°32' W 075°52'4 8.3
2018-Jan-10 14:30N 39°32' W 075°46'4 8.5
2018-Jan-10 14:00N 39°33' W 075°41'4 8.6
2018-Jan-10 13:30N 39°33' W 075°35'3 5.2
2018-Jan-10 13:01N 39°36' W 075°34'3 6.9
2018-Jan-10 12:30N 39°39' W 075°33'4 7.3
2018-Jan-10 12:00N 39°42' W 075°31'4 7.4
2018-Jan-10 11:30N 39°46' W 075°29'4 7.3
2018-Jan-10 11:00N 39°48' W 075°25'3 7.0
2018-Jan-10 10:31N 39°50' W 075°22'3 6.8
2018-Jan-10 10:00N 39°51' W 075°17'4 7.0
2018-Jan-10 09:30N 39°52' W 075°13'4 7.3
2018-Jan-10 09:00N 39°53' W 075°08'4 8.5
2018-Jan-10 08:31N 39°57' W 075°08'2 4.3
2018-Jan-10 08:01N 39°59' W 075°06'0 0.0
2018-Jan-10 07:31N 39°59' W 075°06'0 0.0
2018-Jan-10 07:01N 39°59' W 075°06'2 3.9
2018-Jan-10 06:31N 39°58' W 075°08'4 8.0
2018-Jan-10 06:01N 39°54' W 075°08'3 5.4
2018-Jan-10 05:31N 39°53' W 075°12'0 0.6
2018-Jan-10 05:01N 39°54' W 075°12'0 0.0
2018-Jan-10 04:31N 39°54' W 075°12'0 0.0
2018-Jan-10 04:00N 39°54' W 075°12'0 0.0
2018-Jan-10 03:31N 39°54' W 075°12'0 0.0
2018-Jan-10 03:01N 39°54' W 075°12'0 0.0
2018-Jan-10 02:31N 39°54' W 075°12'0 0.0
2018-Jan-10 02:01N 39°54' W 075°12'0 0.0
2018-Jan-10 01:30N 39°54' W 075°12'0 0.0
2018-Jan-10 01:00N 39°54' W 075°12'0 0.0
2018-Jan-10 00:30N 39°54' W 075°12'0 0.0
2018-Jan-10 00:00N 39°54' W 075°12'0 0.0
2018-Jan-09 23:30N 39°54' W 075°12'0 0.0
2018-Jan-09 23:00N 39°54' W 075°12'0 0.1
2018-Jan-09 22:31N 39°54' W 075°12'0 0.4
2018-Jan-09 22:00N 39°54' W 075°12'0 0.4
2018-Jan-09 21:31N 39°53' W 075°12'0 0.0
2018-Jan-09 21:01N 39°53' W 075°12'0 0.0
2018-Jan-09 20:30N 39°53' W 075°12'0 0.0
2018-Jan-09 20:01N 39°53' W 075°12'0 0.0
2018-Jan-09 19:31N 39°53' W 075°12'0 0.0
2018-Jan-09 19:00N 39°53' W 075°12'0 0.0
2018-Jan-09 18:31N 39°53' W 075°12'0 0.0
2018-Jan-09 18:00N 39°53' W 075°12'0 0.0
2018-Jan-09 17:31N 39°53' W 075°12'2 3.8
2018-Jan-09 17:01N 39°53' W 075°09'611.7
2018-Jan-09 16:30N 39°58' W 075°06'1 1.3
2018-Jan-09 16:00N 39°59' W 075°06'0 0.0
2018-Jan-09 15:30N 39°59' W 075°06'1 1.1
2018-Jan-09 15:00N 39°58' W 075°06'0 0.4
2018-Jan-09 14:30N 39°58' W 075°07'0 0.1
2018-Jan-09 14:00N 39°58' W 075°06'0 0.0
2018-Jan-09 13:30N 39°58' W 075°06'0 0.0
2018-Jan-09 13:00N 39°58' W 075°06'0 0.0
2018-Jan-09 12:30N 39°58' W 075°06'0 0.0
2018-Jan-09 12:01N 39°58' W 075°06'0 0.0
2018-Jan-09 11:31N 39°58' W 075°06'0 0.6
2018-Jan-09 11:00N 39°58' W 075°07'1 1.1
2018-Jan-09 10:31N 39°58' W 075°06'2 3.7
2018-Jan-09 10:01N 39°57' W 075°08'2 4.3
2018-Jan-09 09:30N 39°55' W 075°08'2 4.2
2018-Jan-09 09:00N 39°53' W 075°09'2 4.8
2018-Jan-09 08:30N 39°53' W 075°12'2 4.0
2018-Jan-09 08:01N 39°52' W 075°14'0 0.7
2018-Jan-09 07:31N 39°52' W 075°13'0 0.7
2018-Jan-09 07:01N 39°52' W 075°14'0 0.4
2018-Jan-09 06:30N 39°51' W 075°14'1 1.2
2018-Jan-09 06:00N 39°51' W 075°15'1 2.0
2018-Jan-09 05:30N 39°51' W 075°16'2 3.1
2018-Jan-09 05:00N 39°51' W 075°18'2 3.4
2018-Jan-09 04:30N 39°51' W 075°20'1 3.0
2018-Jan-09 04:00N 39°50' W 075°22'1 2.5
2018-Jan-09 03:30N 39°49' W 075°23'2 3.1
2018-Jan-09 03:00N 39°48' W 075°25'1 2.2
2018-Jan-09 02:30N 39°48' W 075°26'2 3.4
2018-Jan-09 02:00N 39°47' W 075°28'2 3.2
2018-Jan-09 01:30N 39°46' W 075°29'2 3.8
2018-Jan-09 01:00N 39°44' W 075°30'2 4.1
2018-Jan-09 00:30N 39°42' W 075°31'2 4.7
2018-Jan-09 00:00N 39°40' W 075°32'2 4.4
2018-Jan-08 23:30N 39°38' W 075°34'3 5.3
2018-Jan-08 23:00N 39°36' W 075°34'2 4.1
2018-Jan-08 22:30N 39°34' W 075°34'2 4.8
2018-Jan-08 22:00N 39°33' W 075°37'2 4.8
2018-Jan-08 21:30N 39°33' W 075°40'3 5.1
2018-Jan-08 21:00N 39°32' W 075°44'2 4.7
2018-Jan-08 20:30N 39°32' W 075°47'2 4.3
2018-Jan-08 20:00N 39°32' W 075°50'2 4.9
2018-Jan-08 19:30N 39°31' W 075°53'1 2.3
2018-Jan-08 19:01N 39°31' W 075°54'0 0.9
2018-Jan-08 18:30N 39°30' W 075°54'1 1.4
2018-Jan-08 18:00N 39°30' W 075°55'1 2.6
2018-Jan-08 17:30N 39°29' W 075°56'  

Dump ship's entire track history